createdAt,value
2023-04-02T00:04:22.277Z,13.27
2023-04-02T00:08:29.080Z,12.79
2023-04-02T00:12:29.644Z,13.13
2023-04-02T00:16:30.897Z,12.91
2023-04-02T00:20:41.143Z,13.03
2023-04-02T00:24:43.093Z,13.21
2023-04-02T00:28:43.564Z,13.04
2023-04-02T00:32:45.128Z,13.14
2023-04-02T00:36:50.264Z,12.97
2023-04-02T00:40:51.461Z,13.12
2023-04-02T00:44:54.921Z,13.29
2023-04-02T00:49:03.121Z,13.24
2023-04-02T00:53:16.267Z,13.38
2023-04-02T00:57:23.579Z,13.28
2023-04-02T01:01:28.671Z,13.28
2023-04-02T01:05:29.355Z,13.20
2023-04-02T01:09:57.461Z,13.33
2023-04-02T01:14:10.043Z,12.98
2023-04-02T01:18:37.022Z,13.10
2023-04-02T01:22:50.272Z,13.23
2023-04-02T01:26:58.850Z,13.36
2023-04-02T01:31:06.618Z,13.28
2023-04-02T01:35:09.169Z,13.21
2023-04-02T01:39:23.492Z,13.42
2023-04-02T01:43:37.153Z,13.38
2023-04-02T01:47:42.670Z,13.47
2023-04-02T01:51:46.705Z,13.55
2023-04-02T01:55:53.389Z,13.38
2023-04-02T01:59:55.028Z,13.34
2023-04-02T02:03:58.651Z,13.49
2023-04-02T02:08:01.782Z,13.70
2023-04-02T02:12:04.714Z,13.69
2023-04-02T02:16:10.180Z,13.32
2023-04-02T02:20:16.261Z,13.41
2023-04-02T02:24:24.622Z,13.28
2023-04-02T02:28:30.655Z,13.26
2023-04-02T02:32:34.411Z,13.08
2023-04-02T02:36:49.342Z,13.19
2023-04-02T02:40:56.216Z,13.19
2023-04-02T02:45:01.586Z,13.40
2023-04-02T02:49:07.401Z,13.65
2023-04-02T02:53:23.048Z,13.63
2023-04-02T02:57:31.181Z,13.56
2023-04-02T03:01:34.139Z,13.45
2023-04-02T03:05:41.076Z,13.59
2023-04-02T03:10:04.468Z,13.75
2023-04-02T03:14:23.219Z,13.51
2023-04-02T03:18:43.239Z,13.59
2023-04-02T03:22:54.063Z,13.81
2023-04-02T03:27:06.210Z,13.23
2023-04-02T03:31:14.483Z,13.54
2023-04-02T03:35:28.386Z,13.28
2023-04-02T03:39:37.503Z,13.38
2023-04-02T03:43:48.525Z,13.51
2023-04-02T03:47:58.644Z,13.42
2023-04-02T03:52:07.417Z,13.22
2023-04-02T03:56:10.494Z,13.43
2023-04-02T04:00:24.050Z,13.45
2023-04-02T04:04:33.781Z,13.42
2023-04-02T04:08:42.981Z,13.52
2023-04-02T04:12:49.289Z,13.25
2023-04-02T04:17:09.623Z,13.36
2023-04-02T04:21:31.273Z,13.38
2023-04-02T04:25:42.572Z,13.64
2023-04-02T04:29:59.628Z,13.24
2023-04-02T04:34:10.670Z,13.00
2023-04-02T04:38:18.203Z,13.12
2023-04-02T04:42:25.800Z,13.53
2023-04-02T04:46:36.965Z,13.29
2023-04-02T04:50:50.922Z,13.67
2023-04-02T04:54:52.023Z,13.38
2023-04-02T04:59:04.849Z,13.24
2023-04-02T05:03:20.845Z,13.30
2023-04-02T05:07:30.677Z,13.40
2023-04-02T05:11:40.097Z,13.72
2023-04-02T05:15:51.371Z,13.64
2023-04-02T05:20:02.339Z,13.78
2023-04-02T05:24:45.281Z,13.70
2023-04-02T05:28:54.578Z,13.72
2023-04-02T05:33:05.314Z,13.79
2023-04-02T05:37:07.266Z,13.71
2023-04-02T05:41:27.172Z,13.54
2023-04-02T05:45:39.254Z,13.60
2023-04-02T05:49:51.678Z,13.65
2023-04-02T05:53:58.846Z,13.87
2023-04-02T05:58:33.993Z,13.72
2023-04-02T06:02:39.942Z,13.78
2023-04-02T06:07:00.930Z,13.86
2023-04-02T06:11:11.693Z,13.76
2023-04-02T06:15:21.757Z,13.71
2023-04-02T06:19:33.774Z,13.69
2023-04-02T06:23:43.016Z,13.75
2023-04-02T06:27:48.502Z,13.95
2023-04-02T06:32:00.629Z,13.56
2023-04-02T06:36:04.605Z,13.50
2023-04-02T06:40:29.161Z,13.87
2023-04-02T06:44:36.995Z,13.76
2023-04-02T06:49:14.942Z,13.76
2023-04-02T06:53:26.685Z,13.83
2023-04-02T06:57:28.872Z,13.80
2023-04-02T07:01:35.126Z,13.69
2023-04-02T07:05:40.423Z,13.84
2023-04-02T07:09:42.637Z,13.87
2023-04-02T07:13:45.574Z,14.24
2023-04-02T07:17:49.105Z,13.89
2023-04-02T07:21:52.858Z,13.88
2023-04-02T07:25:57.796Z,13.94
2023-04-02T07:29:58.382Z,14.05
2023-04-02T07:34:01.890Z,14.15
2023-04-02T07:38:04.835Z,13.61
2023-04-02T07:42:05.780Z,12.95
2023-04-02T07:46:07.278Z,12.47
2023-04-02T07:50:09.709Z,12.40
2023-04-02T07:54:13.318Z,12.56
2023-04-02T07:58:14.073Z,12.46
2023-04-02T08:02:23.427Z,12.78
2023-04-02T08:06:24.570Z,12.60
2023-04-02T08:10:27.926Z,12.67
2023-04-02T08:14:28.630Z,12.85
2023-04-02T08:18:29.371Z,12.96
2023-04-02T08:22:30.243Z,13.01
2023-04-02T08:26:33.227Z,12.92
2023-04-02T08:30:33.854Z,12.62
2023-04-02T08:34:34.391Z,12.08
2023-04-02T08:38:34.941Z,11.98
2023-04-02T08:42:47.097Z,12.24
2023-04-02T08:46:52.881Z,12.21
2023-04-02T08:50:54.533Z,12.30
2023-04-02T08:54:56.493Z,12.32
2023-04-02T08:59:05.053Z,12.41
2023-04-02T09:03:13.635Z,12.32
2023-04-02T09:07:18.671Z,12.34
2023-04-02T09:11:30.538Z,12.51
2023-04-02T09:15:38.396Z,12.37
2023-04-02T09:19:44.754Z,12.79
2023-04-02T09:23:45.647Z,12.99
2023-04-02T09:27:51.085Z,13.14
2023-04-02T09:32:08.427Z,12.78
2023-04-02T09:36:20.250Z,13.06
2023-04-02T09:40:28.587Z,12.93
2023-04-02T09:44:32.941Z,12.90
2023-04-02T09:48:39.553Z,12.67
2023-04-02T09:52:40.564Z,12.77
2023-04-02T09:57:01.228Z,12.33
2023-04-02T10:01:02.313Z,12.44
2023-04-02T10:05:08.145Z,12.46
2023-04-02T10:09:32.586Z,12.14
2023-04-02T10:13:42.464Z,12.41
2023-04-02T10:17:43.858Z,12.36
2023-04-02T10:21:49.298Z,12.30
2023-04-02T10:26:04.663Z,12.20
2023-04-02T10:30:22.190Z,12.20
2023-04-02T10:34:31.959Z,12.12
2023-04-02T10:38:51.691Z,12.24
2023-04-02T10:43:12.687Z,12.33
2023-04-02T10:47:32.903Z,12.21
2023-04-02T10:51:44.230Z,12.21
2023-04-02T10:55:55.633Z,12.16
2023-04-02T11:00:06.991Z,12.78
2023-04-02T11:04:20.236Z,12.78
2023-04-02T11:08:26.905Z,12.95
2023-04-02T11:12:46.235Z,13.15
2023-04-02T11:16:47.439Z,13.20
2023-04-02T11:21:07.966Z,12.64
2023-04-02T11:25:26.284Z,12.56
2023-04-02T11:29:35.933Z,12.31
2023-04-02T11:33:47.383Z,11.97
2023-04-02T11:37:53.896Z,12.10
2023-04-02T11:42:32.159Z,12.26
2023-04-02T11:47:18.990Z,12.34
2023-04-02T11:51:59.388Z,12.13
2023-04-02T11:56:20.312Z,12.39
2023-04-02T12:01:12.163Z,12.10
2023-04-02T12:05:29.146Z,11.75
2023-04-02T12:09:32.382Z,11.69
2023-04-02T12:13:58.798Z,11.36
2023-04-02T12:18:14.500Z,11.13
2023-04-02T12:22:25.315Z,11.26
2023-04-02T12:26:42.750Z,11.42
2023-04-02T12:30:49.101Z,11.21
2023-04-02T12:34:50.169Z,11.33
2023-04-02T12:38:57.325Z,11.39
2023-04-02T12:42:58.334Z,11.23
2023-04-02T12:47:01.271Z,11.05
2023-04-02T12:51:04.077Z,11.22
2023-04-02T12:55:10.005Z,11.49
2023-04-02T12:59:36.268Z,11.50
2023-04-02T13:03:36.836Z,11.79
2023-04-02T13:07:37.688Z,11.95
2023-04-02T13:11:43.586Z,11.57
2023-04-02T13:15:44.652Z,11.74
2023-04-02T13:19:45.663Z,11.42
2023-04-02T13:23:47.731Z,11.48
2023-04-02T13:27:51.124Z,11.25
2023-04-02T13:31:51.984Z,11.03
2023-04-02T13:35:52.490Z,10.98
2023-04-02T13:39:53.058Z,11.43
2023-04-02T13:43:57.614Z,11.67
2023-04-02T13:48:01.322Z,11.71
2023-04-02T13:52:06.422Z,11.72
2023-04-02T13:56:08.650Z,11.66
2023-04-02T14:00:13.923Z,11.46
2023-04-02T14:04:20.085Z,11.61
2023-04-02T14:08:35.265Z,11.45
2023-04-02T14:13:05.525Z,11.59
2023-04-02T14:17:25.699Z,11.69
2023-04-02T14:21:45.058Z,11.54
2023-04-02T14:25:57.122Z,11.37
2023-04-02T14:30:07.745Z,11.40
2023-04-02T14:34:24.610Z,11.28
2023-04-02T14:38:37.258Z,11.43
2023-04-02T14:42:47.470Z,11.57
2023-04-02T14:46:48.004Z,11.88
2023-04-02T14:50:56.981Z,12.01
2023-04-02T14:55:03.539Z,12.16
2023-04-02T14:59:24.194Z,12.32
2023-04-02T15:03:28.287Z,12.24
2023-04-02T15:07:43.407Z,12.17
2023-04-02T15:11:51.086Z,12.12
2023-04-02T15:16:12.736Z,12.26
2023-04-02T15:20:18.905Z,12.45
2023-04-02T15:24:37.304Z,12.51
2023-04-02T15:28:45.811Z,12.58
2023-04-02T15:32:49.326Z,12.26
2023-04-02T15:37:10.529Z,12.28
2023-04-02T15:41:26.534Z,12.21
2023-04-02T15:45:38.166Z,12.05
2023-04-02T15:49:46.368Z,11.96
2023-04-02T15:53:59.908Z,12.05
2023-04-02T15:58:25.046Z,11.82
2023-04-02T16:02:55.261Z,11.49
2023-04-02T16:07:21.737Z,11.51
2023-04-02T16:11:22.788Z,11.67
2023-04-02T16:15:39.552Z,11.72
2023-04-02T16:19:50.551Z,11.58
2023-04-02T16:23:52.689Z,11.64
2023-04-02T16:28:05.920Z,11.75
2023-04-02T16:32:23.081Z,11.99
2023-04-02T16:36:42.090Z,11.97
2023-04-02T16:41:07.623Z,11.57
2023-04-02T16:45:29.587Z,11.69
2023-04-02T16:49:42.901Z,11.48
2023-04-02T16:54:01.430Z,11.06
2023-04-02T16:58:23.028Z,10.48
2023-04-02T17:02:42.474Z,10.57
2023-04-02T17:07:03.716Z,10.73
2023-04-02T17:11:09.201Z,11.00
2023-04-02T17:15:27.856Z,10.95
2023-04-02T17:19:34.369Z,10.61
2023-04-02T17:27:58.999Z,10.34
2023-04-02T17:32:05.471Z,10.54
2023-04-02T17:36:26.397Z,10.37
2023-04-02T17:40:39.484Z,10.30
2023-04-02T17:45:08.257Z,9.99
2023-04-02T17:49:24.984Z,9.98
2023-04-02T17:53:43.361Z,9.71
2023-04-02T17:58:05.398Z,9.76
2023-04-02T18:02:29.866Z,9.61
2023-04-02T18:06:42.529Z,9.63
2023-04-02T18:11:01.892Z,9.66
2023-04-02T18:15:45.335Z,9.62
2023-04-02T18:19:56.160Z,9.34
2023-04-02T18:24:32.693Z,9.56
2023-04-02T18:28:50.868Z,9.49
2023-04-02T18:33:24.505Z,9.30
2023-04-02T18:37:40.334Z,9.27
2023-04-02T18:41:54.872Z,9.39
2023-04-02T18:46:05.457Z,9.15
2023-04-02T18:50:21.045Z,9.18
2023-04-02T18:54:29.040Z,9.14
2023-04-02T18:58:42.646Z,9.16
2023-04-02T19:02:50.344Z,9.08
2023-04-02T19:07:06.330Z,9.08
2023-04-02T19:11:14.425Z,9.28
2023-04-02T19:15:21.709Z,9.33
2023-04-02T19:19:26.960Z,8.90
2023-04-02T19:24:03.185Z,8.88
2023-04-02T19:28:21.671Z,9.22
2023-04-02T19:32:34.327Z,9.24
2023-04-02T19:36:50.991Z,9.42
2023-04-02T19:41:02.576Z,9.21
2023-04-02T19:45:06.118Z,9.29
2023-04-02T19:49:13.583Z,9.30
2023-04-02T19:53:14.527Z,9.08
2023-04-02T19:57:20.335Z,8.92
2023-04-02T20:01:22.541Z,9.03
2023-04-02T20:05:23.176Z,9.03
2023-04-02T20:09:24.285Z,9.15
2023-04-02T20:13:27.671Z,8.89
2023-04-02T20:17:28.546Z,9.18
2023-04-02T20:21:38.601Z,9.26
2023-04-02T20:25:40.549Z,9.09
2023-04-02T20:29:43.928Z,8.89
2023-04-02T20:33:46.576Z,8.86
2023-04-02T20:37:48.322Z,8.59
2023-04-02T20:41:52.104Z,8.54
2023-04-02T20:46:04.547Z,8.72
2023-04-02T20:50:05.437Z,8.71
2023-04-02T20:54:08.666Z,8.76
2023-04-02T20:58:09.017Z,9.03
2023-04-02T21:02:14.018Z,8.70
2023-04-02T21:06:17.748Z,8.59
2023-04-02T21:10:20.091Z,8.48
2023-04-02T21:14:20.892Z,8.32
2023-04-02T21:18:23.862Z,8.25
2023-04-02T21:22:24.216Z,8.57
2023-04-02T21:26:28.222Z,8.70
2023-04-02T21:30:28.549Z,8.35
2023-04-02T21:34:31.853Z,8.55
2023-04-02T21:38:32.281Z,8.07
2023-04-02T21:42:32.918Z,8.14
2023-04-02T21:46:38.758Z,8.40
2023-04-02T21:50:42.005Z,8.58
2023-04-02T21:54:42.464Z,9.03
2023-04-02T21:58:43.630Z,8.98
2023-04-02T22:02:44.649Z,8.95
2023-04-02T22:06:49.666Z,8.71
2023-04-02T22:10:50.117Z,8.43
2023-04-02T22:14:50.497Z,8.64
2023-04-02T22:18:53.102Z,8.69
2023-04-02T22:22:58.100Z,8.65
2023-04-02T22:26:58.643Z,8.54
2023-04-02T22:31:07.641Z,8.31
2023-04-02T22:35:09.236Z,8.23
2023-04-02T22:39:15.266Z,8.31
2023-04-02T22:43:15.752Z,8.25
2023-04-02T22:47:16.072Z,8.16
2023-04-02T22:51:20.966Z,8.19
2023-04-02T22:55:24.328Z,8.40
2023-04-02T22:59:25.029Z,8.40
2023-04-02T23:03:25.379Z,8.36
2023-04-02T23:07:25.852Z,8.28
2023-04-02T23:11:31.351Z,8.30
2023-04-02T23:15:32.357Z,8.07
2023-04-02T23:19:32.786Z,8.12
2023-04-02T23:23:34.329Z,7.89
2023-04-02T23:27:38.312Z,7.76
2023-04-02T23:31:39.245Z,7.76
2023-04-02T23:35:40.002Z,7.74
2023-04-02T23:39:41.029Z,7.69
2023-04-02T23:43:44.489Z,7.55
2023-04-02T23:47:45.357Z,7.43
2023-04-02T23:51:45.851Z,7.47
2023-04-02T23:55:46.217Z,7.47
2023-04-02T23:59:49.234Z,7.59
